Iglesia, Argentina
Current Conditions -  °F | °C
As of 11:00 PM on Saturday 22 Nov 2014 (Local Time) from SCSE Reporting Station
Scattered Clouds Scattered Clouds  
Wind Chill: 55°   Ceiling: Unl
Heat Index: 55°   Visibility: 6mi
Dew Point: 52°   Wind: 5mph
Humidity: 88%   Direction: 270°W
Pressure: 30"   Gusts: NA
Location:  30.17°S, 69.21°W
Report Text: SCSE 230200Z 27004KT 9999 SCT013 13/11 Q1016
Loading
Personal Weather Stations






























Interactive Weather Map New forecast layout! Learn more

10-Day Weather Forecast

Advertisements
Track Severe Weather on mobile